Time;durP1;ratioP1;P1;durP2;ratioP2;P2;SDS_P1;SDS_P2;PMS_P1;PMS_P2;Temp;Humidity;BMP_temperature;BMP_pressure;BME280_temperature;BME280_humidity;BME280_pressure;Samples;Min_cycle;Max_cycle;Signal;HPM_P1;HPM_P2
2022/03/22 00:00:34;;;;;;;34.70;17.80;;;;;;;4.26;45.23;98205.16;5115939;28;20826;-38
2022/03/22 00:03:04;;;;;;;27.20;13.87;;;;;;;4.05;45.46;98184.56;5116217;28;20446;-37
2022/03/22 00:05:32;;;;;;;31.87;15.50;;;;;;;4.22;44.21;98209.09;5115866;28;20488;-38
2022/03/22 00:08:01;;;;;;;23.83;13.10;;;;;;;4.20;44.30;98200.53;5116137;28;20473;-38
2022/03/22 00:10:28;;;;;;;27.97;14.07;;;;;;;4.27;42.97;98201.53;5115825;28;20446;-37
2022/03/22 00:12:56;;;;;;;27.43;13.43;;;;;;;4.37;42.19;98190.88;5115558;28;20977;-37
2022/03/22 00:15:24;;;;;;;31.40;14.90;;;;;;;4.39;42.24;98200.22;5115609;28;20485;-37
2022/03/22 00:17:53;;;;;;;25.73;12.80;;;;;;;4.41;41.71;98203.53;5115627;28;20540;-37
2022/03/22 00:20:20;;;;;;;29.57;14.43;;;;;;;4.40;41.89;98201.88;5115533;28;20453;-36
2022/03/22 00:22:48;;;;;;;33.93;17.60;;;;;;;4.44;41.84;98213.72;5115577;28;20782;-36
2022/03/22 00:25:16;;;;;;;32.87;16.17;;;;;;;4.35;42.53;98188.38;5115379;28;20486;-36
2022/03/22 00:27:57;;;;;;;29.73;12.93;;;;;;;4.39;41.37;98194.97;5115462;28;20533;-36
2022/03/22 00:30:25;;;;;;;33.03;16.40;;;;;;;4.43;42.39;98200.72;5115367;28;20480;-38
2022/03/22 00:32:56;;;;;;;41.03;22.13;;;;;;;4.43;43.05;98198.94;5115367;28;20445;-36
2022/03/22 00:35:25;;;;;;;30.30;15.30;;;;;;;4.42;42.95;98204.34;5115289;28;20475;-37
2022/03/22 00:37:53;;;;;;;32.57;15.43;;;;;;;4.17;43.72;98185.06;5115572;28;20597;-37
2022/03/22 00:40:22;;;;;;;41.37;16.83;;;;;;;4.19;44.13;98204.13;5115224;28;20453;-35
2022/03/22 00:42:53;;;;;;;36.17;17.33;;;;;;;4.21;44.03;98207.41;5115107;28;20442;-37
2022/03/22 00:45:22;;;;;;;34.70;13.77;;;;;;;4.13;43.33;98197.72;5115441;28;20431;-37
2022/03/22 00:47:52;;;;;;;30.47;13.40;;;;;;;4.24;44.18;98213.19;5115025;28;20441;-36
2022/03/22 00:50:24;;;;;;;33.80;14.97;;;;;;;4.22;44.16;98206.44;5115074;28;20422;-37
2022/03/22 00:52:52;;;;;;;31.30;17.37;;;;;;;4.23;44.94;98205.44;5114929;28;20430;-37
2022/03/22 00:55:21;;;;;;;32.90;14.10;;;;;;;4.20;45.77;98192.66;5114893;28;20453;-38
2022/03/22 00:57:49;;;;;;;34.43;12.73;;;;;;;4.21;45.82;98191.66;5115183;28;20481;-37
2022/03/22 01:00:17;;;;;;;35.97;15.60;;;;;;;4.13;45.90;98183.72;5115163;28;20464;-37
2022/03/22 01:02:49;;;;;;;25.43;12.30;;;;;;;4.08;45.54;98187.66;5115186;28;20464;-37
2022/03/22 01:05:19;;;;;;;31.77;13.20;;;;;;;4.03;45.53;98200.47;5114804;28;20886;-37
2022/03/22 01:07:50;;;;;;;18.63;11.77;;;;;;;4.04;45.22;98196.03;5114967;28;20457;-37
2022/03/22 01:10:18;;;;;;;29.93;13.10;;;;;;;4.04;45.26;98178.50;5114619;28;20525;-37
2022/03/22 01:12:47;;;;;;;38.40;14.97;;;;;;;4.05;45.14;98188.00;5114404;28;20504;-37
2022/03/22 01:15:17;;;;;;;26.87;14.27;;;;;;;4.10;45.11;98185.69;5114490;28;20478;-37
2022/03/22 01:17:45;;;;;;;27.93;13.00;;;;;;;4.07;45.03;98170.25;5114479;28;20956;-37
2022/03/22 01:20:13;;;;;;;27.53;12.70;;;;;;;4.12;44.58;98171.59;5114456;28;20438;-38
2022/03/22 01:22:41;;;;;;;30.37;13.23;;;;;;;4.11;44.38;98183.91;5114420;28;20481;-37
2022/03/22 01:25:13;;;;;;;31.43;15.17;;;;;;;4.13;44.49;98178.47;5114413;28;20438;-37
2022/03/22 01:27:42;;;;;;;26.90;13.73;;;;;;;4.14;44.92;98174.88;5114385;28;20578;-37
2022/03/22 01:30:12;;;;;;;32.63;14.43;;;;;;;4.15;44.98;98173.88;5114708;28;20476;-37
2022/03/22 01:32:39;;;;;;;31.00;14.33;;;;;;;3.89;45.63;98146.75;5113845;28;20488;-37
2022/03/22 01:35:09;;;;;;;37.60;16.13;;;;;;;4.10;45.70;98180.44;5114200;28;20456;-37
2022/03/22 01:37:37;;;;;;;35.20;14.00;;;;;;;4.12;45.97;98171.59;5114454;28;20780;-38
2022/03/22 01:40:06;;;;;;;27.30;14.20;;;;;;;4.10;45.71;98167.31;5114457;28;20454;-37
2022/03/22 01:42:35;;;;;;;27.83;13.10;;;;;;;4.07;45.97;98170.25;5114085;28;20447;-38
2022/03/22 01:45:04;;;;;;;28.23;14.00;;;;;;;4.09;46.05;98170.94;5114064;27;20962;-37
2022/03/22 01:47:32;;;;;;;28.00;12.53;;;;;;;4.12;45.90;98171.59;5114293;28;20497;-37
2022/03/22 01:49:59;;;;;;;26.80;13.80;;;;;;;4.10;45.64;98169.13;5114058;28;21028;-37
2022/03/22 01:52:26;;;;;;;42.83;16.07;;;;;;;4.12;45.99;98155.81;5113968;28;20933;-37
2022/03/22 01:54:55;;;;;;;28.67;11.87;;;;;;;4.16;45.60;98167.66;5113835;28;20477;-38
2022/03/22 01:57:25;;;;;;;26.70;13.17;;;;;;;4.13;45.64;98178.47;5113919;28;20442;-38
2022/03/22 01:59:54;;;;;;;24.87;13.33;;;;;;;4.12;45.38;98168.97;5113843;28;20968;-37
2022/03/22 02:07:52;;;;;;;23.80;12.50;;;;;;;4.07;45.91;98153.69;5113853;28;20476;-37
2022/03/22 02:10:19;;;;;;;32.00;11.83;;;;;;;4.07;46.26;98153.69;5114020;28;20453;-37
2022/03/22 02:12:47;;;;;;;21.67;11.97;;;;;;;4.07;46.32;98159.75;5113507;28;20513;-38
2022/03/22 02:15:16;;;;;;;24.23;12.57;;;;;;;4.06;46.58;98157.28;5114058;28;20847;-37
2022/03/22 02:17:45;;;;;;;21.03;11.83;;;;;;;4.06;45.87;98152.84;5113965;28;20812;-38
2022/03/22 02:20:13;;;;;;;23.17;12.37;;;;;;;4.06;46.12;98150.22;5113660;28;20442;-38
2022/03/22 02:22:45;;;;;;;31.00;15.07;;;;;;;4.02;46.48;98145.44;5113653;28;20478;-38
2022/03/22 02:25:16;;;;;;;20.97;13.03;;;;;;;3.99;46.69;98151.84;5113655;28;20956;-37
2022/03/22 02:27:45;;;;;;;25.87;13.67;;;;;;;3.97;46.56;98143.28;5113607;28;20502;-38
2022/03/22 02:30:13;;;;;;;26.03;12.03;;;;;;;3.99;46.19;98149.22;5113827;28;20525;-39
2022/03/22 02:32:40;;;;;;;24.83;12.50;;;;;;;4.04;46.68;98135.59;5113564;28;20450;-38
2022/03/22 02:35:09;;;;;;;22.33;13.20;;;;;;;4.03;46.29;98139.22;5113575;28;20438;-38
2022/03/22 02:37:37;;;;;;;23.50;11.47;;;;;;;4.02;46.49;98145.44;5114599;28;20441;-38
2022/03/22 02:40:08;;;;;;;30.83;13.40;;;;;;;3.97;46.82;98142.47;5113473;28;20478;-38
2022/03/22 02:42:37;;;;;;;24.87;11.70;;;;;;;3.85;47.33;98129.66;5113752;28;20513;-37
2022/03/22 02:45:05;;;;;;;24.13;11.83;;;;;;;3.93;47.96;98136.72;5116120;28;20441;-38
2022/03/22 02:47:32;;;;;;;30.53;14.20;;;;;;;3.90;48.48;98131.78;5117321;28;20485;-38
2022/03/22 02:49:59;;;;;;;46.50;17.67;;;;;;;3.87;48.63;98129.47;5117766;28;20525;-38
2022/03/22 02:52:27;;;;;;;36.77;13.03;;;;;;;3.84;47.85;98142.94;5117295;28;20438;-38
2022/03/22 02:54:54;;;;;;;24.83;14.00;;;;;;;3.89;47.09;98127.50;5117311;28;20442;-38
2022/03/22 02:57:22;;;;;;;31.20;13.07;;;;;;;3.89;46.86;98123.09;5117363;28;20798;-38
2022/03/22 02:59:50;;;;;;;18.60;12.23;;;;;;;3.94;46.74;98133.13;5117172;28;20444;-38
2022/03/22 03:02:18;;;;;;;21.70;11.43;;;;;;;3.93;46.15;98130.66;5104360;28;20538;-38
2022/03/22 03:04:45;;;;;;;21.97;12.00;;;;;;;3.94;46.33;98127.06;5099106;28;20979;-38
2022/03/22 03:07:12;;;;;;;22.53;11.03;;;;;;;3.97;45.82;98130.16;5117203;28;20486;-38
2022/03/22 03:09:39;;;;;;;25.30;12.87;;;;;;;3.99;45.89;98132.63;5116990;28;20944;-38
2022/03/22 03:12:07;;;;;;;20.90;10.43;;;;;;;4.01;46.07;98134.09;5100379;28;20502;-38
2022/03/22 03:14:41;;;;;;;21.90;12.63;;;;;;;4.03;45.94;98134.78;5096581;28;20443;-38
2022/03/22 03:17:13;;;;;;;14.77;9.57;;;;;;;4.05;46.17;98132.00;5096489;28;20438;-38
2022/03/22 03:19:40;;;;;;;17.70;10.73;;;;;;;4.03;45.58;98132.16;5096466;28;20797;-38
2022/03/22 03:22:09;;;;;;;24.97;12.23;;;;;;;3.84;45.59;98100.91;5096680;28;20809;-38
2022/03/22 03:24:36;;;;;;;19.63;11.37;;;;;;;3.99;45.47;98125.56;5096657;28;20443;-38
2022/03/22 03:27:04;;;;;;;22.03;10.70;;;;;;;4.04;45.20;98131.19;5096602;28;20483;-38
2022/03/22 03:29:31;;;;;;;17.23;11.27;;;;;;;4.03;45.64;98126.88;5096227;28;20938;-38
2022/03/22 03:31:59;;;;;;;24.30;12.90;;;;;;;4.04;45.16;98130.34;5096578;28;20438;-38
2022/03/22 03:34:27;;;;;;;22.23;10.23;;;;;;;4.07;44.59;98120.31;5096957;28;20918;-38
2022/03/22 03:36:55;;;;;;;18.80;11.53;;;;;;;4.06;44.36;98129.19;5096084;28;20450;-36
2022/03/22 03:39:22;;;;;;;31.17;12.83;;;;;;;4.06;44.15;98120.47;5096274;28;20463;-37
2022/03/22 03:41:55;;;;;;;34.97;14.80;;;;;;;4.07;44.52;98116.88;5096263;28;20446;-37
2022/03/22 03:47:09;;;;;;;22.67;10.47;;;;;;;4.08;43.92;98108.81;5095976;28;20515;-37
2022/03/22 03:49:39;;;;;;;23.70;11.60;;;;;;;4.12;43.56;98116.38;5095880;28;20446;-37
2022/03/22 03:52:08;;;;;;;19.57;10.77;;;;;;;4.19;43.36;98112.13;5096164;28;20430;-37
2022/03/22 03:54:36;;;;;;;25.17;11.97;;;;;;;4.01;42.97;98073.66;5095616;28;20479;-37
2022/03/22 03:57:04;;;;;;;19.13;11.17;;;;;;;4.28;42.51;98108.50;5095507;28;20439;-37
2022/03/22 03:59:32;;;;;;;23.10;12.47;;;;;;;4.28;42.54;98108.50;5095665;28;20439;-37
2022/03/22 04:01:59;;;;;;;23.33;11.03;;;;;;;4.29;42.47;98113.59;5095871;28;20964;-38
2022/03/22 04:04:26;;;;;;;24.23;11.40;;;;;;;4.28;42.41;98101.44;5096038;28;20966;-37
2022/03/22 04:06:55;;;;;;;22.73;10.53;;;;;;;4.33;42.57;98111.47;5107132;28;20485;-37
2022/03/22 04:09:23;;;;;;;20.47;10.60;;;;;;;4.34;42.21;98115.72;5113598;28;20533;-36
2022/03/22 04:11:50;;;;;;;26.60;13.83;;;;;;;4.23;42.73;98095.03;5113777;28;20496;-35
2022/03/22 04:14:18;;;;;;;25.47;12.87;;;;;;;4.37;42.51;98112.78;5095351;28;20446;-34
2022/03/22 04:16:46;;;;;;;34.53;16.57;;;;;;;4.38;42.07;98108.34;5095622;28;20443;-37
2022/03/22 04:19:13;;;;;;;51.23;23.00;;;;;;;4.39;42.66;98116.09;5095521;28;20443;-36
2022/03/22 04:21:41;;;;;;;28.20;15.80;;;;;;;4.40;42.83;98115.09;5095185;28;20530;-34
2022/03/22 04:24:10;;;;;;;35.67;13.67;;;;;;;4.35;43.16;98113.94;5095124;28;20454;-38
2022/03/22 04:26:40;;;;;;;39.23;16.30;;;;;;;4.31;43.59;98108.19;5095163;28;20439;-36
2022/03/22 04:34:40;;;;;;;34.53;17.13;;;;;;;4.25;45.23;98111.47;5068935;28;20424;-37
2022/03/22 04:37:08;;;;;;;26.73;14.53;;;;;;;4.26;44.50;98115.75;5095238;28;20451;-37
2022/03/22 04:39:37;;;;;;;49.03;20.63;;;;;;;4.27;43.74;98114.75;5094761;28;20443;-38
2022/03/22 04:42:05;;;;;;;44.47;18.47;;;;;;;4.30;43.64;98117.03;5095124;28;20449;-37
2022/03/22 04:44:34;;;;;;;40.60;20.93;;;;;;;4.33;43.55;98116.72;5094775;28;20439;-38
2022/03/22 04:47:01;;;;;;;23.70;12.77;;;;;;;4.35;43.48;98120.03;5094674;28;20486;-38
2022/03/22 04:49:29;;;;;;;33.80;17.47;;;;;;;4.36;43.80;98111.13;5095663;28;20500;-37
2022/03/22 04:57:27;;;;;;;20.50;12.40;;;;;;;4.41;43.25;98111.47;5095069;28;20901;-37
2022/03/22 04:59:55;;;;;;;33.00;13.43;;;;;;;4.45;43.70;98102.28;5094529;28;20439;-37
2022/03/22 05:02:23;;;;;;;24.30;10.77;;;;;;;4.42;43.35;98096.50;5094451;28;20458;-37
2022/03/22 05:04:50;;;;;;;24.57;12.93;;;;;;;4.55;43.07;98094.19;5094413;28;20451;-37
2022/03/22 05:07:17;;;;;;;24.03;14.60;;;;;;;4.50;43.09;98092.06;5094676;28;20495;-37
2022/03/22 05:09:46;;;;;;;24.77;13.47;;;;;;;4.62;42.86;98089.09;5098649;28;20446;-37
2022/03/22 05:12:14;;;;;;;17.67;9.90;;;;;;;4.58;42.77;98090.41;5114570;28;20833;-37
2022/03/22 05:14:43;;;;;;;23.13;11.30;;;;;;;4.64;42.61;98092.38;5114604;28;20446;-37
2022/03/22 05:17:11;;;;;;;30.17;11.57;;;;;;;4.72;43.14;98097.63;5114373;28;20449;-37
2022/03/22 05:19:40;;;;;;;33.77;14.47;;;;;;;4.75;42.54;98094.66;5114835;28;20456;-37
2022/03/22 05:22:08;;;;;;;20.20;11.47;;;;;;;4.72;42.64;98089.75;5114419;28;20445;-37
2022/03/22 05:24:35;;;;;;;19.03;10.30;;;;;;;4.74;42.93;98092.22;5114331;28;20477;-37
2022/03/22 05:27:06;;;;;;;18.63;11.80;;;;;;;4.76;42.65;98092.88;5114247;27;20568;-38
2022/03/22 05:29:33;;;;;;;24.07;12.63;;;;;;;4.76;42.65;98091.06;5114230;28;20828;-36
2022/03/22 05:32:01;;;;;;;24.17;11.00;;;;;;;4.77;42.43;98087.41;5114238;28;20438;-37
2022/03/22 05:34:28;;;;;;;33.07;13.90;;;;;;;4.74;42.61;98085.13;5114602;28;20483;-37
2022/03/22 05:36:55;;;;;;;28.37;13.83;;;;;;;4.79;42.68;98095.97;5114089;28;20481;-37
2022/03/22 05:39:23;;;;;;;32.80;13.60;;;;;;;4.82;43.15;98092.16;5093701;28;20431;-38
2022/03/22 05:41:51;;;;;;;41.30;16.63;;;;;;;4.88;43.23;98089.72;5093742;28;20442;-37
2022/03/22 05:44:20;;;;;;;61.43;23.83;;;;;;;4.88;42.60;98088.88;5093954;28;20508;-38
2022/03/22 05:46:47;;;;;;;75.70;30.90;;;;;;;4.93;42.90;98095.28;5093494;28;20807;-37
2022/03/22 05:49:14;;;;;;;33.10;15.33;;;;;;;4.98;42.74;98105.31;5093891;28;20854;-37
2022/03/22 05:51:42;;;;;;;45.70;18.80;;;;;;;5.02;42.94;98100.53;5093383;28;20522;-37
2022/03/22 05:54:09;;;;;;;38.97;18.20;;;;;;;5.04;42.21;98088.03;5093549;28;20478;-37
2022/03/22 05:56:36;;;;;;;36.67;18.20;;;;;;;5.07;42.41;98093.75;5093552;28;20455;-37
2022/03/22 05:59:04;;;;;;;24.23;13.80;;;;;;;5.09;42.65;98099.66;5093428;28;20439;-37
2022/03/22 06:01:32;;;;;;;18.90;12.40;;;;;;;5.10;42.70;98101.31;5093366;28;20529;-37
2022/03/22 06:04:00;;;;;;;24.07;13.37;;;;;;;5.14;42.41;98104.44;5093500;28;20526;-34
2022/03/22 06:06:27;;;;;;;29.10;15.00;;;;;;;5.15;42.16;98098.19;5093463;28;20819;-37
2022/03/22 06:08:54;;;;;;;51.83;19.20;;;;;;;5.20;42.24;98093.22;5093193;28;20522;-37
2022/03/22 06:11:22;;;;;;;38.10;20.03;;;;;;;5.23;42.01;98099.97;5093117;28;20446;-37
2022/03/22 06:13:49;;;;;;;30.27;16.20;;;;;;;5.27;41.88;98104.72;5093399;28;20481;-37
2022/03/22 06:16:16;;;;;;;32.13;16.97;;;;;;;5.31;41.80;98102.56;5093524;28;20441;-38
2022/03/22 06:18:45;;;;;;;31.80;15.27;;;;;;;5.33;41.65;98104.06;5095088;28;20924;-37
2022/03/22 06:21:14;;;;;;;23.37;13.10;;;;;;;5.40;42.06;98087.53;5097389;28;20434;-37
2022/03/22 06:23:41;;;;;;;46.00;16.63;;;;;;;5.43;41.92;98100.38;5097427;28;20783;-37
2022/03/22 06:26:08;;;;;;;40.33;17.40;;;;;;;5.48;41.96;98098.03;5097688;28;20439;-38
2022/03/22 06:28:35;;;;;;;24.20;12.83;;;;;;;5.48;41.26;98096.22;5097574;28;20572;-37
2022/03/22 06:31:03;;;;;;;16.73;11.30;;;;;;;5.52;42.02;98088.81;5111207;28;20478;-37
2022/03/22 06:33:30;;;;;;;26.40;11.47;;;;;;;5.61;41.80;98094.84;5118009;28;20450;-38
2022/03/22 06:35:59;;;;;;;16.33;11.50;;;;;;;5.65;41.59;98096.97;5117643;28;20928;-37
2022/03/22 06:38:26;;;;;;;25.93;12.70;;;;;;;5.67;41.88;98105.53;5117566;28;20442;-37
2022/03/22 06:40:54;;;;;;;21.57;9.73;;;;;;;5.75;41.83;98100.22;5117585;28;20441;-37
2022/03/22 06:43:21;;;;;;;16.13;10.37;;;;;;;5.86;41.78;98114.00;5117602;28;20448;-37
2022/03/22 06:45:49;;;;;;;28.67;12.20;;;;;;;5.91;42.20;98109.81;5117529;28;21025;-37
2022/03/22 06:48:17;;;;;;;22.83;12.80;;;;;;;5.99;42.19;98119.53;5117697;28;20493;-36
2022/03/22 06:50:47;;;;;;;26.13;13.20;;;;;;;6.05;42.11;98124.13;5117364;28;20442;-37
2022/03/22 06:53:15;;;;;;;20.37;11.40;;;;;;;6.08;42.38;98123.75;5117415;28;20792;-38
2022/03/22 06:55:43;;;;;;;24.40;11.33;;;;;;;6.20;43.13;98126.00;5117233;28;20538;-37
2022/03/22 06:58:11;;;;;;;23.53;11.77;;;;;;;6.24;42.43;98135.19;5117228;28;20449;-37
2022/03/22 07:00:39;;;;;;;15.70;10.00;;;;;;;6.28;42.67;98128.56;5117167;28;20566;-37
2022/03/22 07:03:06;;;;;;;14.70;9.47;;;;;;;6.36;42.66;98125.88;5117159;28;20445;-36
2022/03/22 07:05:34;;;;;;;22.27;11.63;;;;;;;6.48;42.39;98119.19;5117123;28;20512;-37
2022/03/22 07:08:02;;;;;;;24.00;12.27;;;;;;;6.61;41.94;98128.34;5117163;28;20522;-37
2022/03/22 07:10:32;;;;;;;22.50;12.60;;;;;;;6.67;42.52;98122.34;5117050;28;20437;-37
2022/03/22 07:13:01;;;;;;;21.53;11.23;;;;;;;6.75;42.02;98111.69;5117210;28;20481;-37
2022/03/22 07:15:30;;;;;;;21.90;11.93;;;;;;;6.84;42.12;98110.63;5116982;28;20442;-36
2022/03/22 07:18:00;;;;;;;25.47;12.57;;;;;;;7.01;41.59;98118.38;5117233;28;20517;-37
2022/03/22 07:20:28;;;;;;;30.70;15.60;;;;;;;7.06;40.46;98108.91;5117087;28;20537;-37
2022/03/22 07:22:55;;;;;;;22.93;12.50;;;;;;;7.16;39.33;98121.84;5117082;28;20442;-36
2022/03/22 07:25:23;;;;;;;26.00;12.00;;;;;;;7.25;40.07;98122.56;5116635;28;20449;-36
2022/03/22 07:27:51;;;;;;;25.87;11.13;;;;;;;7.36;40.11;98117.66;5116909;27;20477;-37
2022/03/22 07:30:19;;;;;;;35.30;16.50;;;;;;;7.52;39.97;98131.66;5115907;27;20937;-36
2022/03/22 07:32:47;;;;;;;21.40;12.70;;;;;;;7.64;39.49;98119.63;5116793;28;20449;-37
2022/03/22 07:35:17;;;;;;;24.03;13.50;;;;;;;7.78;39.32;98116.13;5116722;28;20929;-37
2022/03/22 07:37:44;;;;;;;55.90;23.47;;;;;;;7.78;39.52;98120.59;5117130;28;20438;-37
2022/03/22 07:40:13;;;;;;;32.30;14.00;;;;;;;7.76;39.42;98122.59;5116561;27;20533;-36
2022/03/22 07:42:40;;;;;;;15.03;10.60;;;;;;;7.75;39.83;98121.78;5116468;28;20863;-36
2022/03/22 07:45:11;;;;;;;23.47;12.40;;;;;;;7.72;39.82;98116.88;5116413;28;20862;-36
2022/03/22 07:47:41;;;;;;;40.27;17.10;;;;;;;7.70;40.00;98103.03;5116235;28;20457;-36
2022/03/22 07:53:01;;;;;;;33.10;19.23;;;;;;;7.63;39.39;98101.31;5116386;28;20429;-36
2022/03/22 07:55:31;;;;;;;40.00;20.97;;;;;;;7.42;39.78;98080.91;5116545;28;20432;-37
2022/03/22 07:57:59;;;;;;;30.47;17.63;;;;;;;7.39;40.50;98076.81;5116051;28;20859;-36
2022/03/22 08:00:29;;;;;;;36.37;14.07;;;;;;;7.60;39.85;98102.50;5116088;28;20452;-37
2022/03/22 08:02:59;;;;;;;24.40;15.17;;;;;;;7.58;39.75;98100.03;5116483;28;20426;-36
2022/03/22 08:05:26;;;;;;;22.03;13.37;;;;;;;7.67;40.17;98092.81;5115919;28;20448;-36
2022/03/22 08:07:54;;;;;;;30.73;15.17;;;;;;;7.83;39.67;98086.50;5115685;28;20483;-38
2022/03/22 08:10:22;;;;;;;47.30;20.63;;;;;;;7.78;39.25;98078.28;5115797;28;20442;-36
2022/03/22 08:12:50;;;;;;;24.73;13.87;;;;;;;7.94;39.64;98080.72;5115636;28;20515;-37
2022/03/22 08:15:18;;;;;;;32.20;18.90;;;;;;;8.10;39.89;98092.88;5115672;28;20442;-38
2022/03/22 08:17:47;;;;;;;31.40;15.33;;;;;;;8.20;39.40;98093.38;5116089;28;20797;-36
2022/03/22 08:20:15;;;;;;;33.23;18.17;;;;;;;8.42;39.69;98089.94;5115575;28;20985;-36
2022/03/22 08:22:50;;;;;;;24.73;15.23;;;;;;;8.56;39.00;98083.72;5115915;27;20437;-36
2022/03/22 08:25:19;;;;;;;25.20;13.70;;;;;;;8.75;38.46;98074.28;5115576;28;20452;-37
2022/03/22 08:27:46;;;;;;;111.57;46.83;;;;;;;8.86;38.93;98065.81;5115712;28;20442;-37
2022/03/22 08:30:18;;;;;;;64.57;35.30;;;;;;;8.88;39.48;98058.47;5115312;28;20438;-37
2022/03/22 08:32:46;;;;;;;160.43;63.77;;;;;;;9.11;39.36;98070.66;5115916;28;20442;-36
2022/03/22 08:35:14;;;;;;;49.60;24.27;;;;;;;9.40;39.43;98072.25;5115648;28;20445;-36
2022/03/22 08:37:41;;;;;;;62.50;30.07;;;;;;;9.58;38.68;98061.88;5115595;28;20505;-37
2022/03/22 08:40:10;;;;;;;46.37;22.30;;;;;;;9.72;39.19;98060.13;5115608;28;20517;-35
2022/03/22 08:42:39;;;;;;;34.97;13.30;;;;;;;9.86;38.48;98065.44;5114449;28;20451;-36
2022/03/22 08:45:07;;;;;;;36.37;16.30;;;;;;;9.95;38.69;98058.94;5115155;28;20445;-37
2022/03/22 08:47:35;;;;;;;34.80;15.87;;;;;;;10.04;38.66;98058.56;5115107;28;20442;-36
2022/03/22 08:50:05;;;;;;;41.33;20.23;;;;;;;10.07;38.10;98036.09;5114941;28;20497;-36
2022/03/22 08:52:33;;;;;;;17.97;12.13;;;;;;;10.30;38.61;98072.06;5115003;28;20449;-35
2022/03/22 08:55:00;;;;;;;34.97;16.63;;;;;;;10.23;38.50;98056.91;5115260;28;20444;-37
2022/03/22 08:57:28;;;;;;;23.33;11.53;;;;;;;10.04;38.91;98052.41;5114891;28;20445;-36
2022/03/22 08:59:55;;;;;;;48.07;20.60;;;;;;;10.10;39.65;98054.25;5114865;28;20452;-37
2022/03/22 09:02:22;;;;;;;26.80;13.70;;;;;;;10.28;40.38;98056.31;5115165;28;20470;-37
2022/03/22 09:07:38;;;;;;;26.17;14.00;;;;;;;10.60;40.79;98030.81;5088638;28;20859;-37
2022/03/22 09:10:06;;;;;;;30.10;13.23;;;;;;;10.59;41.17;98034.50;5114566;28;20492;-37
2022/03/22 09:12:33;;;;;;;24.00;14.97;;;;;;;10.74;41.14;98041.44;5114418;28;21040;-37
2022/03/22 09:15:01;;;;;;;22.47;9.47;;;;;;;11.05;41.62;98028.25;5114414;28;20808;-37
2022/03/22 09:17:29;;;;;;;16.20;10.50;;;;;;;11.25;40.67;98027.41;5114509;28;20442;-37
2022/03/22 09:19:56;;;;;;;15.87;8.00;;;;;;;11.38;40.27;98027.34;5114745;28;20442;-38
2022/03/22 09:22:23;;;;;;;26.57;14.90;;;;;;;11.50;40.43;98024.00;5114322;28;20438;-36
2022/03/22 09:24:53;;;;;;;19.70;11.40;;;;;;;11.68;39.42;98021.47;5114446;28;20495;-37
2022/03/22 09:27:20;;;;;;;17.30;11.57;;;;;;;11.69;39.97;98023.09;5114594;28;20491;-36
2022/03/22 09:29:47;;;;;;;20.97;10.90;;;;;;;11.71;39.45;98013.06;5114535;28;20490;-36
2022/03/22 09:32:15;;;;;;;19.83;10.67;;;;;;;11.52;39.51;98006.00;5114191;28;20530;-35
2022/03/22 09:34:43;;;;;;;19.20;9.83;;;;;;;11.53;39.73;98005.78;5114207;28;20491;-35
2022/03/22 09:37:10;;;;;;;24.23;12.87;;;;;;;11.85;41.22;97995.16;5114169;28;20442;-37
2022/03/22 09:39:38;;;;;;;19.30;9.77;;;;;;;12.26;40.00;97994.69;5114376;28;20481;-36
2022/03/22 09:42:07;;;;;;;14.70;9.07;;;;;;;12.45;38.72;97978.72;5114059;28;20938;-37
2022/03/22 09:44:36;;;;;;;21.63;9.47;;;;;;;12.21;39.63;97977.72;5114343;28;20450;-37
2022/03/22 09:47:04;;;;;;;20.63;11.60;;;;;;;12.54;39.52;97981.94;5114331;28;20445;-36
2022/03/22 09:49:32;;;;;;;19.20;9.87;;;;;;;12.47;39.18;97971.34;5114224;28;20572;-36
2022/03/22 09:52:02;;;;;;;14.07;9.07;;;;;;;12.29;38.73;97964.94;5113975;28;20930;-36
2022/03/22 09:54:30;;;;;;;21.93;9.00;;;;;;;12.02;39.64;97974.19;5113636;28;20430;-36
2022/03/22 09:56:57;;;;;;;14.70;8.20;;;;;;;11.94;40.12;97961.13;5114141;28;20465;-37
2022/03/22 09:59:26;;;;;;;20.23;10.00;;;;;;;11.87;39.75;97972.63;5113952;28;20442;-37
2022/03/22 10:01:53;;;;;;;26.23;14.43;;;;;;;11.85;40.61;97957.91;5113761;28;20457;-36
2022/03/22 10:04:21;;;;;;;16.43;8.60;;;;;;;11.68;40.39;97963.75;5113818;28;20947;-37
2022/03/22 10:06:57;;;;;;;29.27;14.43;;;;;;;11.75;40.68;97958.38;5113745;28;20525;-38
2022/03/22 10:09:29;;;;;;;15.57;8.20;;;;;;;11.75;41.93;97950.41;5113717;28;21003;-37
2022/03/22 10:11:57;;;;;;;17.73;10.90;;;;;;;11.56;42.35;97925.56;5113588;28;20973;-39
2022/03/22 10:14:36;;;;;;;27.00;14.40;;;;;;;11.75;42.30;97941.63;5114041;28;20442;-37
2022/03/22 10:17:14;;;;;;;13.37;8.20;;;;;;;11.54;42.27;97940.91;5113694;28;20426;-38
2022/03/22 10:19:46;;;;;;;19.67;9.97;;;;;;;11.68;42.99;97957.63;5114012;28;20845;-37
2022/03/22 10:22:14;;;;;;;21.30;12.23;;;;;;;11.65;42.92;97945.53;5113584;28;20433;-37
2022/03/22 10:24:49;;;;;;;21.07;9.03;;;;;;;11.58;42.51;97936.00;5113542;28;20452;-40
2022/03/22 10:27:23;;;;;;;19.10;8.90;;;;;;;11.53;43.58;97938.47;5113576;28;20442;-37
2022/03/22 10:29:52;;;;;;;19.90;11.50;;;;;;;11.41;42.70;97936.50;5113549;28;20913;-37
2022/03/22 10:32:29;;;;;;;37.07;16.93;;;;;;;11.33;42.93;97944.72;5113539;28;20802;-37
2022/03/22 10:34:57;;;;;;;18.70;10.27;;;;;;;11.38;43.58;97923.66;5113647;28;20430;-36
2022/03/22 10:37:27;;;;;;;22.17;10.13;;;;;;;11.76;43.37;97913.97;5113877;28;20526;-38
2022/03/22 10:39:55;;;;;;;19.87;9.77;;;;;;;11.83;43.38;97910.25;5113576;28;20481;-37
2022/03/22 10:42:24;;;;;;;24.20;8.57;;;;;;;11.81;42.60;97912.31;5113435;28;20478;-36
2022/03/22 10:44:59;;;;;;;18.47;8.83;;;;;;;11.71;43.14;97906.63;5113796;28;20525;-39
2022/03/22 10:47:27;;;;;;;18.97;10.70;;;;;;;11.67;42.80;97918.75;5113449;28;20430;-36
2022/03/22 10:50:06;;;;;;;15.60;9.50;;;;;;;11.48;42.97;97905.34;5113371;28;20623;-37
2022/03/22 10:52:35;;;;;;;22.00;10.23;;;;;;;11.39;43.76;97896.00;5113661;28;20507;-37
2022/03/22 10:55:03;;;;;;;17.80;9.67;;;;;;;11.36;43.56;97907.09;5113663;28;20461;-38
2022/03/22 10:57:37;;;;;;;17.20;9.30;;;;;;;11.39;43.66;97896.00;5113386;28;20446;-38
2022/03/22 11:00:08;;;;;;;13.77;8.53;;;;;;;11.46;43.39;97899.47;5113451;28;20429;-38
2022/03/22 11:02:38;;;;;;;28.53;9.30;;;;;;;11.55;43.71;97893.84;5113696;28;20812;-38
2022/03/22 11:05:07;;;;;;;19.37;9.00;;;;;;;11.58;42.89;97877.47;5114194;28;20433;-38
2022/03/22 11:07:37;;;;;;;15.53;8.70;;;;;;;11.56;43.38;97874.22;5117073;28;20441;-37
2022/03/22 11:10:06;;;;;;;14.10;9.13;;;;;;;11.69;44.11;97879.44;5117338;28;20556;-36
2022/03/22 11:12:34;;;;;;;14.20;9.20;;;;;;;11.96;43.44;97868.59;5117238;28;20468;-37
2022/03/22 11:15:03;;;;;;;19.37;10.50;;;;;;;11.96;42.00;97845.47;5117330;28;20453;-38
2022/03/22 11:17:34;;;;;;;16.83;10.67;;;;;;;11.99;42.61;97846.88;5117271;28;20441;-38
2022/03/22 11:20:04;;;;;;;25.40;10.40;;;;;;;12.11;42.41;97858.44;5116924;28;20474;-37
2022/03/22 11:22:32;;;;;;;18.87;9.90;;;;;;;12.00;41.82;97828.03;5117220;28;20525;-38
2022/03/22 11:25:08;;;;;;;23.10;10.20;;;;;;;12.18;42.44;97856.50;5117957;28;20446;-37
2022/03/22 11:27:36;;;;;;;19.20;12.43;;;;;;;12.23;41.78;97859.31;5116716;28;20505;-37
2022/03/22 11:30:04;;;;;;;18.33;10.83;;;;;;;12.32;41.72;97851.03;5116594;28;20488;-37
2022/03/22 11:35:24;;;;;;;17.50;11.03;;;;;;;12.19;41.42;97850.16;5116659;28;20440;-37
2022/03/22 11:38:00;;;;;;;23.43;12.93;;;;;;;12.02;41.67;97833.13;5116613;28;20437;-35
2022/03/22 11:43:15;;;;;;;23.27;13.17;;;;;;;12.22;40.47;97830.28;5116923;28;20877;-37
2022/03/22 11:45:50;;;;;;;18.60;10.87;;;;;;;12.15;40.40;97825.00;5116376;28;20446;-36
2022/03/22 11:48:19;;;;;;;21.80;11.50;;;;;;;12.16;40.59;97815.19;5116303;28;20441;-36
2022/03/22 11:50:47;;;;;;;41.23;26.83;;;;;;;12.14;40.29;97828.72;5115930;28;21004;-35
2022/03/22 11:53:19;;;;;;;20.00;12.33;;;;;;;12.11;39.74;97802.53;5116492;28;20454;-36
2022/03/22 11:55:52;;;;;;;21.30;11.70;;;;;;;12.09;39.95;97791.31;5116077;28;20442;-37
2022/03/22 11:58:20;;;;;;;32.30;14.47;;;;;;;11.95;40.40;97787.94;5116116;28;20431;-37
2022/03/22 12:00:51;;;;;;;30.20;15.03;;;;;;;12.17;40.46;97792.84;5115963;28;20991;-36